Time;durP1;ratioP1;P1;durP2;ratioP2;P2;SDS_P1;SDS_P2;PMS_P1;PMS_P2;Temp;Humidity;BMP_temperature;BMP_pressure;BME280_temperature;BME280_humidity;BME280_pressure;Samples;Min_cycle;Max_cycle;Signal;HPM_P1;HPM_P2
2023/02/09 01:37:40;;;;;;;;;;;;;;;;;;4898929;29;19927;-92
2023/02/09 01:40:14;;;;;;;;;;;;;;;;;;4900178;29;20490;-93
2023/02/09 01:42:42;;;;;;;;;;;;;;;;;;4884020;29;19923;-95
2023/02/09 01:45:11;;;;;;;;;;;;;;;;;;4884110;29;20480;-93
2023/02/09 01:50:33;;;;;;;;;;;;;;;;;;4884000;29;19930;-92
2023/02/09 01:53:02;;;;;;;;;;;;;;;;;;4884100;29;20034;-94
2023/02/09 01:55:31;;;;;;;;;;;;;;;;;;4899701;29;19927;-93
2023/02/09 01:57:57;;;;;;;;;;;;;;;;;;4899641;29;19934;-93
2023/02/09 02:00:25;;;;;;;;;;;;;;;;;;4883952;29;20033;-95
2023/02/09 02:02:54;;;;;;;;;;;;;;;;;;4883941;29;19928;-94
2023/02/09 02:05:23;;;;;;;;;;;;;;;;;;4883877;29;19929;-94
2023/02/09 02:07:51;;;;;;;;;;;;;;;;;;4883914;29;19924;-92
2023/02/09 02:10:17;;;;;;;;;;;;;;;;;;4883778;29;19930;-93
2023/02/09 02:12:43;;;;;;;;;;;;;;;;;;4884387;29;19927;-94
2023/02/09 02:15:09;;;;;;;;;;;;;;;;;;4883606;29;19923;-94
2023/02/09 02:17:35;;;;;;;;;;;;;;;;;;4883717;29;19934;-95
2023/02/09 02:20:09;;;;;;;;;;;;;;;;;;4883660;29;19923;-94
2023/02/09 02:22:42;;;;;;;;;;;;;;;;;;4883492;29;19924;-95
2023/02/09 02:25:08;;;;;;;;;;;;;;;;;;4883565;29;19923;-96
2023/02/09 02:27:41;;;;;;;;;;;;;;;;;;4900433;29;19935;-95
2023/02/09 02:30:07;;;;;;;;;;;;;;;;;;4883237;29;20105;-92
2023/02/09 02:32:42;;;;;;;;;;;;;;;;;;4883578;29;19979;-93
2023/02/09 02:35:10;;;;;;;;;;;;;;;;;;4883196;29;20279;-94
2023/02/09 02:37:36;;;;;;;;;;;;;;;;;;4898963;29;20014;-93
2023/02/09 02:40:02;;;;;;;;;;;;;;;;;;4898959;29;20340;-94
2023/02/09 02:45:20;;;;;;;;;;;;;;;;;;4899975;29;19958;-93
2023/02/09 02:47:49;;;;;;;;;;;;;;;;;;4900034;29;19971;-95
2023/02/09 02:50:25;;;;;;;;;;;;;;;;;;;;;
2023/02/09 02:52:51;;;;;;;;;;;;;;;;;;4881026;29;20112;-95
2023/02/09 02:55:25;;;;;;;;;;;;;;;;;;4882340;29;20232;-95
2023/02/09 02:57:53;;;;;;;;;;;;;;;;;;4882986;29;20018;-95
2023/02/09 03:00:29;;;;;;;;;;;;;;;;;;;;;
2023/02/09 03:03:05;;;;;;;;;;;;;;;;;;4899765;29;20418;-92
2023/02/09 03:05:31;;;;;;;;;;;;;;;;;;4883159;29;19923;-92
2023/02/09 03:08:00;;;;;;;;;;;;;;;;;;4882805;29;19923;-95
2023/02/09 03:10:33;;;;;;;;;;;;;;;;;;4882468;29;20010;-95
2023/02/09 03:13:17;;;;;;;;;;;;;;;;;;4898442;29;19927;-95
2023/02/09 03:15:53;;;;;;;;;;;;;;;;;;;;;
2023/02/09 03:18:36;;;;;;;;;;;;;;;;;;4882606;29;19960;-95
2023/02/09 03:41:59;;;;;;;;;;;;;;;;;;4709446;30;19970;-96
2023/02/09 03:44:25;;;;;;;;;;;;;;;;;;4765149;29;20321;-94
2023/02/09 03:49:54;;;;;;;;;;;;;;;;;;;;;
2023/02/09 03:55:36;;;;;;;;;;;;;;;;;;4841374;29;19947;-95
2023/02/09 04:19:33;;;;;;;;;;;;;;;;;;;;;
2023/02/09 05:47:30;;;;;;;;;;;;;;;;;;;;;
2023/02/09 07:24:15;;;;;;;;;;;;;;;;;;4886016;29;19955;-93
2023/02/09 07:26:41;;;;;;;;;;;;;;;;;;4882380;29;20408;-90
2023/02/09 07:29:07;;;;;;;;;;;;;;;;;;4882404;29;20291;-90
2023/02/09 07:31:33;;;;;;;;;;;;;;;;;;4881807;29;19931;-89
2023/02/09 07:33:59;;;;;;;;;;;;;;;;;;4866100;29;19930;-89
2023/02/09 07:36:25;;;;;;;;;;;;;;;;;;4866023;29;19973;-88
2023/02/09 07:38:51;;;;;;;;;;;;;;;;;;4898130;29;19927;-90
2023/02/09 07:41:17;;;;;;;;;;;;;;;;;;4866247;29;19979;-90
2023/02/09 07:43:43;;;;;;;;;;;;;;;;;;4881653;29;19923;-90
2023/02/09 07:46:09;;;;;;;;;;;;;;;;;;4866055;29;19923;-90
2023/02/09 07:48:35;;;;;;;;;;;;;;;;;;4881709;29;19924;-89
2023/02/09 07:51:01;;;;;;;;;;;;;;;;;;4865793;29;20496;-92
2023/02/09 07:53:27;;;;;;;;;;;;;;;;;;4881298;29;19923;-93
2023/02/09 07:55:52;;;;;;;;;;;;;;;;;;4881672;29;19930;-93
2023/02/09 07:58:19;;;;;;;;;;;;;;;;;;4865205;29;20051;-93
2023/02/09 08:00:45;;;;;;;;;;;;;;;;;;4866038;29;19975;-91
2023/02/09 08:03:11;;;;;;;;;;;;;;;;;;4865942;29;20009;-92
2023/02/09 08:05:37;;;;;;;;;;;;;;;;;;4880972;29;19923;-92
2023/02/09 08:08:03;;;;;;;;;;;;;;;;;;4897732;29;20022;-90
2023/02/09 08:10:29;;;;;;;;;;;;;;;;;;4881244;29;19923;-92
2023/02/09 08:12:58;;;;;;;;;;;;;;;;;;4882147;29;19923;-92
2023/02/09 08:15:24;;;;;;;;;;;;;;;;;;4881438;29;19923;-90
2023/02/09 08:17:50;;;;;;;;;;;;;;;;;;4897790;29;20010;-92
2023/02/09 08:20:16;;;;;;;;;;;;;;;;;;4881182;29;19927;-93
2023/02/09 08:22:42;;;;;;;;;;;;;;;;;;4865871;29;20387;-90
2023/02/09 08:25:08;;;;;;;;;;;;;;;;;;4881670;29;19934;-90
2023/02/09 08:27:41;;;;;;;;;;;;;;;;;;4866722;29;19927;-93
2023/02/09 08:30:07;;;;;;;;;;;;;;;;;;4882130;29;19924;-92
2023/02/09 08:32:33;;;;;;;;;;;;;;;;;;4881147;29;20340;-90
2023/02/09 08:34:59;;;;;;;;;;;;;;;;;;4865955;29;19974;-90
2023/02/09 08:37:25;;;;;;;;;;;;;;;;;;4881218;29;19923;-91
2023/02/09 08:39:51;;;;;;;;;;;;;;;;;;4865873;29;19935;-90
2023/02/09 08:42:20;;;;;;;;;;;;;;;;;;4881745;29;19923;-92
2023/02/09 08:44:46;;;;;;;;;;;;;;;;;;4898053;29;19923;-90
2023/02/09 08:47:28;;;;;;;;;;;;;;;;;;4881286;29;20367;-92
2023/02/09 08:49:54;;;;;;;;;;;;;;;;;;4860175;29;19931;-91
2023/02/09 08:52:20;;;;;;;;;;;;;;;;;;4878504;29;20276;-91
2023/02/09 08:54:48;;;;;;;;;;;;;;;;;;4883194;29;19932;-94
2023/02/09 08:57:16;;;;;;;;;;;;;;;;;;4898698;29;19962;-89
2023/02/09 08:59:42;;;;;;;;;;;;;;;;;;4881739;29;19945;-91
2023/02/09 09:02:08;;;;;;;;;;;;;;;;;;4897910;29;20029;-93
2023/02/09 09:04:34;;;;;;;;;;;;;;;;;;4866414;29;19923;-92
2023/02/09 09:07:00;;;;;;;;;;;;;;;;;;4881776;29;20046;-95
2023/02/09 09:09:29;;;;;;;;;;;;;;;;;;4894968;29;20015;-94
2023/02/09 09:11:55;;;;;;;;;;;;;;;;;;4869746;29;19971;-93
2023/02/09 09:14:21;;;;;;;;;;;;;;;;;;4883114;29;19931;-91
2023/02/09 09:16:47;;;;;;;;;;;;;;;;;;4850880;29;19924;-92
2023/02/09 09:19:13;;;;;;;;;;;;;;;;;;4850875;29;19977;-94
2023/02/09 09:21:39;;;;;;;;;;;;;;;;;;4883054;29;20002;-93
2023/02/09 09:24:05;;;;;;;;;;;;;;;;;;4850566;29;20123;-92
2023/02/09 09:26:31;;;;;;;;;;;;;;;;;;4866513;29;19939;-92
2023/02/09 09:28:57;;;;;;;;;;;;;;;;;;4850108;29;19924;-91
2023/02/09 09:31:22;;;;;;;;;;;;;;;;;;4881811;29;19927;-89
2023/02/09 09:33:48;;;;;;;;;;;;;;;;;;4882519;29;20011;-92
2023/02/09 09:36:14;;;;;;;;;;;;;;;;;;4850491;29;19931;-92
2023/02/09 09:38:40;;;;;;;;;;;;;;;;;;4850343;29;19924;-89
2023/02/09 09:41:06;;;;;;;;;;;;;;;;;;4849937;29;20372;-90
2023/02/09 09:43:32;;;;;;;;;;;;;;;;;;4865101;29;19987;-90
2023/02/09 09:45:58;;;;;;;;;;;;;;;;;;4849833;29;19983;-90
2023/02/09 09:48:26;;;;;;;;;;;;;;;;;;4864790;29;19930;-91
2023/02/09 09:50:52;;;;;;;;;;;;;;;;;;4864991;29;19935;-89
2023/02/09 09:53:18;;;;;;;;;;;;;;;;;;4881620;29;20364;-90
2023/02/09 09:55:44;;;;;;;;;;;;;;;;;;4865267;29;19931;-90
2023/02/09 09:58:17;;;;;;;;;;;;;;;;;;4864518;29;19924;-96
2023/02/09 10:00:43;;;;;;;;;;;;;;;;;;4851024;29;19932;-91
2023/02/09 10:03:09;;;;;;;;;;;;;;;;;;4849411;29;19947;-91
2023/02/09 10:05:35;;;;;;;;;;;;;;;;;;4849679;29;19928;-91
2023/02/09 10:08:01;;;;;;;;;;;;;;;;;;4864766;29;19931;-91
2023/02/09 10:10:27;;;;;;;;;;;;;;;;;;4849753;29;19934;-92
2023/02/09 10:12:52;;;;;;;;;;;;;;;;;;4848859;29;20351;-89
2023/02/09 10:15:18;;;;;;;;;;;;;;;;;;4863452;29;20256;-89
2023/02/09 10:17:44;;;;;;;;;;;;;;;;;;4867247;29;19924;-88
2023/02/09 10:20:10;;;;;;;;;;;;;;;;;;4882784;29;19978;-90
2023/02/09 10:22:36;;;;;;;;;;;;;;;;;;4883038;29;19924;-90
2023/02/09 10:25:02;;;;;;;;;;;;;;;;;;4867424;29;19994;-91
2023/02/09 10:27:28;;;;;;;;;;;;;;;;;;4882845;29;19924;-91
2023/02/09 10:29:55;;;;;;;;;;;;;;;;;;4883235;29;19978;-93
2023/02/09 10:32:21;;;;;;;;;;;;;;;;;;4867384;29;19923;-90
2023/02/09 10:34:47;;;;;;;;;;;;;;;;;;4867346;29;20280;-89
2023/02/09 10:37:13;;;;;;;;;;;;;;;;;;4867333;29;19923;-89
2023/02/09 10:39:39;;;;;;;;;;;;;;;;;;4882784;29;20385;-93
2023/02/09 10:42:05;;;;;;;;;;;;;;;;;;4867985;29;19970;-94
2023/02/09 10:44:31;;;;;;;;;;;;;;;;;;4883490;29;19930;-90
2023/02/09 10:47:00;;;;;;;;;;;;;;;;;;4868115;29;19930;-92
2023/02/09 10:49:26;;;;;;;;;;;;;;;;;;4868173;29;19924;-93
2023/02/09 10:51:52;;;;;;;;;;;;;;;;;;4868311;29;19938;-93
2023/02/09 10:54:18;;;;;;;;;;;;;;;;;;4867571;29;19939;-90
2023/02/09 10:56:44;;;;;;;;;;;;;;;;;;4867388;29;19967;-88
2023/02/09 10:59:13;;;;;;;;;;;;;;;;;;4866749;29;19923;-90
2023/02/09 11:01:40;;;;;;;;;;;;;;;;;;4867475;29;19970;-90
2023/02/09 11:04:06;;;;;;;;;;;;;;;;;;4867047;29;19923;-92
2023/02/09 11:06:32;;;;;;;;;;;;;;;;;;4882642;29;19928;-92
2023/02/09 11:08:58;;;;;;;;;;;;;;;;;;4866970;29;19931;-91
2023/02/09 11:11:24;;;;;;;;;;;;;;;;;;4866916;29;19927;-91
2023/02/09 11:13:50;;;;;;;;;;;;;;;;;;4882402;29;19931;-91
2023/02/09 11:16:16;;;;;;;;;;;;;;;;;;4866715;29;20014;-91
2023/02/09 11:18:42;;;;;;;;;;;;;;;;;;4867725;29;19986;-92
2023/02/09 11:21:08;;;;;;;;;;;;;;;;;;4867600;29;19928;-93
2023/02/09 11:26:43;;;;;;;;;;;;;;;;;;4885471;29;19993;-94
2023/02/09 11:29:09;;;;;;;;;;;;;;;;;;4883321;29;19971;-92
2023/02/09 11:31:35;;;;;;;;;;;;;;;;;;4881473;29;19923;-92
2023/02/09 11:34:01;;;;;;;;;;;;;;;;;;4882465;29;19930;-92
2023/02/09 11:36:27;;;;;;;;;;;;;;;;;;4882351;29;19923;-90
2023/02/09 11:38:53;;;;;;;;;;;;;;;;;;4898398;29;19923;-90
2023/02/09 11:44:06;;;;;;;;;;;;;;;;;;4862914;29;20376;-93
2023/02/09 11:46:35;;;;;;;;;;;;;;;;;;4865677;29;20452;-91
2023/02/09 16:08:59;;;;;;;;;;;;;;;;;;4860807;29;19927;-91
2023/02/09 16:11:35;;;;;;;;;;;;;;;;;;4860443;29;19932;-95
2023/02/09 16:14:10;;;;;;;;;;;;;;;;;;4861010;29;19985;-90
2023/02/09 16:16:35;;;;;;;;;;;;;;;;;;4859645;29;19927;-92
2023/02/09 16:19:01;;;;;;;;;;;;;;;;;;4860544;29;19976;-92
2023/02/09 16:21:27;;;;;;;;;;;;;;;;;;4859776;29;19924;-91
2023/02/09 16:23:56;;;;;;;;;;;;;;;;;;4860648;29;19924;-93
2023/02/09 16:26:23;;;;;;;;;;;;;;;;;;4843755;29;19931;-91
2023/02/09 16:28:50;;;;;;;;;;;;;;;;;;4844892;29;19946;-94
2023/02/09 16:31:19;;;;;;;;;;;;;;;;;;4860415;29;19967;-91
2023/02/09 16:33:45;;;;;;;;;;;;;;;;;;4844239;29;20400;-92
2023/02/09 16:36:11;;;;;;;;;;;;;;;;;;4860970;29;19968;-92
2023/02/09 16:38:37;;;;;;;;;;;;;;;;;;4860765;29;19950;-92
2023/02/09 16:41:03;;;;;;;;;;;;;;;;;;4844298;29;19972;-91
2023/02/09 16:43:32;;;;;;;;;;;;;;;;;;4844329;29;20007;-93
2023/02/09 16:45:58;;;;;;;;;;;;;;;;;;4843944;29;19924;-90
2023/02/09 16:51:32;;;;;;;;;;;;;;;;;;4805417;29;19932;-94
2023/02/09 16:56:55;;;;;;;;;;;;;;;;;;4844507;29;20388;-93
2023/02/09 16:59:21;;;;;;;;;;;;;;;;;;4859093;29;19932;-92
2023/02/09 17:01:58;;;;;;;;;;;;;;;;;;4844182;29;19984;-92
2023/02/09 17:04:24;;;;;;;;;;;;;;;;;;4859376;29;20388;-94
2023/02/09 17:06:51;;;;;;;;;;;;;;;;;;4845548;29;20405;-94
2023/02/09 17:09:17;;;;;;;;;;;;;;;;;;4862117;29;20368;-93
2023/02/09 17:14:47;;;;;;;;;;;;;;;;;;4879607;29;20329;-91
2023/02/09 17:17:13;;;;;;;;;;;;;;;;;;4862170;29;19963;-93
2023/02/09 17:19:41;;;;;;;;;;;;;;;;;;4861929;29;19934;-92
2023/02/09 17:22:07;;;;;;;;;;;;;;;;;;4862155;29;19991;-95
2023/02/09 17:27:48;;;;;;;;;;;;;;;;;;4857150;29;20111;-94
2023/02/09 17:33:40;;;;;;;;;;;;;;;;;;4813409;29;19928;-93
2023/02/09 17:59:59;;;;;;;;;;;;;;;;;;4898013;29;19959;-91
2023/02/09 18:02:25;;;;;;;;;;;;;;;;;;4871326;29;20015;-91
2023/02/09 18:04:51;;;;;;;;;;;;;;;;;;4865047;29;19924;-93
2023/02/09 18:07:19;;;;;;;;;;;;;;;;;;4865162;29;20368;-93
2023/02/09 18:09:45;;;;;;;;;;;;;;;;;;4846957;29;20322;-91
2023/02/09 18:12:15;;;;;;;;;;;;;;;;;;4861810;29;19936;-93
2023/02/09 18:14:41;;;;;;;;;;;;;;;;;;4846092;29;19924;-92
2023/02/09 18:17:07;;;;;;;;;;;;;;;;;;4846387;29;19924;-92
2023/02/09 18:19:32;;;;;;;;;;;;;;;;;;4845891;29;19988;-90
2023/02/09 18:21:58;;;;;;;;;;;;;;;;;;4846130;29;19924;-91
2023/02/09 18:24:24;;;;;;;;;;;;;;;;;;4845970;29;19975;-91
2023/02/09 18:26:50;;;;;;;;;;;;;;;;;;4845492;29;20255;-90
2023/02/09 18:29:16;;;;;;;;;;;;;;;;;;4861324;29;19931;-92
2023/02/09 18:31:42;;;;;;;;;;;;;;;;;;4846160;29;20451;-92
2023/02/09 18:34:08;;;;;;;;;;;;;;;;;;4845947;29;19931;-93
2023/02/09 18:36:34;;;;;;;;;;;;;;;;;;4862452;29;20003;-92
2023/02/09 18:39:00;;;;;;;;;;;;;;;;;;4845845;29;19928;-93
2023/02/09 18:41:26;;;;;;;;;;;;;;;;;;4861238;29;20026;-91
2023/02/09 18:43:52;;;;;;;;;;;;;;;;;;4861374;29;19924;-91
2023/02/09 18:46:18;;;;;;;;;;;;;;;;;;4845175;29;19980;-91
2023/02/09 18:48:44;;;;;;;;;;;;;;;;;;4845636;29;19964;-91
2023/02/09 18:51:10;;;;;;;;;;;;;;;;;;4861746;29;20404;-92
2023/02/09 18:53:36;;;;;;;;;;;;;;;;;;4845200;29;19924;-91
2023/02/09 18:56:02;;;;;;;;;;;;;;;;;;4876963;29;19927;-93
2023/02/09 19:39:10;;;;;;;;;;;;;;;;;;5138979;23;20404;-93
2023/02/09 20:04:53;;;;;;;;;;;;;;;;;;4919226;29;20383;-93
2023/02/09 20:07:19;;;;;;;;;;;;;;;;;;4899261;29;19994;-92
2023/02/09 20:09:47;;;;;;;;;;;;;;;;;;4899914;29;19963;-94
2023/02/09 20:12:14;;;;;;;;;;;;;;;;;;4885922;29;19923;-91
2023/02/09 20:14:40;;;;;;;;;;;;;;;;;;4899858;29;19948;-93
2023/02/09 20:17:06;;;;;;;;;;;;;;;;;;4899540;29;19927;-92
2023/02/09 20:19:32;;;;;;;;;;;;;;;;;;4884044;29;19931;-92
2023/02/09 20:21:58;;;;;;;;;;;;;;;;;;4884520;29;19923;-92
2023/02/09 20:24:24;;;;;;;;;;;;;;;;;;4884295;29;19923;-93
2023/02/09 20:26:50;;;;;;;;;;;;;;;;;;4884137;29;19923;-91
2023/02/09 20:29:17;;;;;;;;;;;;;;;;;;4899844;29;20009;-93
2023/02/09 20:31:43;;;;;;;;;;;;;;;;;;4884234;29;20014;-91
2023/02/09 20:34:09;;;;;;;;;;;;;;;;;;4899823;29;19923;-93
2023/02/09 20:36:35;;;;;;;;;;;;;;;;;;4899510;29;19975;-93
2023/02/09 20:39:04;;;;;;;;;;;;;;;;;;4899995;29;20339;-93
2023/02/09 20:41:30;;;;;;;;;;;;;;;;;;4883984;29;19962;-92
2023/02/09 20:46:56;;;;;;;;;;;;;;;;;;4916904;29;19923;-92
2023/02/09 20:49:22;;;;;;;;;;;;;;;;;;4883778;29;19959;-92
2023/02/09 20:51:48;;;;;;;;;;;;;;;;;;4883831;29;19929;-92
2023/02/09 20:54:14;;;;;;;;;;;;;;;;;;4884048;29;20018;-94
2023/02/09 20:56:40;;;;;;;;;;;;;;;;;;4883832;29;20058;-94
2023/02/09 20:59:06;;;;;;;;;;;;;;;;;;4884244;29;19931;-94
2023/02/09 21:01:32;;;;;;;;;;;;;;;;;;4884152;29;20130;-93
2023/02/09 21:03:59;;;;;;;;;;;;;;;;;;4899395;29;19927;-93
2023/02/09 21:06:25;;;;;;;;;;;;;;;;;;4886762;29;19985;-92
2023/02/09 21:08:50;;;;;;;;;;;;;;;;;;4887542;29;19927;-92
2023/02/09 21:11:16;;;;;;;;;;;;;;;;;;4903719;29;20015;-94
2023/02/09 21:14:01;;;;;;;;;;;;;;;;;;4904229;29;20389;-96
2023/02/09 21:16:29;;;;;;;;;;;;;;;;;;4889140;29;20019;-95
2023/02/09 21:18:55;;;;;;;;;;;;;;;;;;4893207;29;19950;-92
2023/02/09 21:21:36;;;;;;;;;;;;;;;;;;4907547;29;19923;-95
2023/02/09 21:24:02;;;;;;;;;;;;;;;;;;4887473;29;19930;-94
2023/02/09 21:26:33;;;;;;;;;;;;;;;;;;4903375;29;19923;-93
2023/02/09 21:29:01;;;;;;;;;;;;;;;;;;4903366;29;19927;-94
2023/02/09 21:34:16;;;;;;;;;;;;;;;;;;5461310;23;19926;-95
2023/02/09 21:47:53;;;;;;;;;;;;;;;;;;4871987;29;19923;-96
2023/02/09 21:50:22;;;;;;;;;;;;;;;;;;4868725;29;19923;-92
2023/02/09 21:52:58;;;;;;;;;;;;;;;;;;4870589;29;19924;-94
2023/02/09 21:55:33;;;;;;;;;;;;;;;;;;4872808;29;19931;-95
2023/02/09 21:57:59;;;;;;;;;;;;;;;;;;4869428;29;19923;-94
2023/02/09 22:00:25;;;;;;;;;;;;;;;;;;4868492;29;19934;-93
2023/02/09 22:02:51;;;;;;;;;;;;;;;;;;4868772;29;19943;-93
2023/02/09 22:05:17;;;;;;;;;;;;;;;;;;4868196;29;20265;-94
2023/02/09 22:07:45;;;;;;;;;;;;;;;;;;4868381;29;19924;-93
2023/02/09 22:10:11;;;;;;;;;;;;;;;;;;4868547;29;20310;-96
2023/02/09 22:12:38;;;;;;;;;;;;;;;;;;4868591;29;20452;-95
2023/02/09 22:15:04;;;;;;;;;;;;;;;;;;4868765;29;19935;-95
2023/02/09 22:17:33;;;;;;;;;;;;;;;;;;4868173;29;19927;-96
2023/02/09 22:19:59;;;;;;;;;;;;;;;;;;4868794;29;19927;-96
2023/02/09 22:22:27;;;;;;;;;;;;;;;;;;4884865;29;19923;-96
2023/02/09 22:24:56;;;;;;;;;;;;;;;;;;4868719;29;19923;-96
2023/02/09 22:27:30;;;;;;;;;;;;;;;;;;4869835;29;19923;-96
2023/02/09 22:29:56;;;;;;;;;;;;;;;;;;4885086;29;19930;-95
2023/02/09 22:32:24;;;;;;;;;;;;;;;;;;4884012;29;20300;-96
2023/02/09 22:34:53;;;;;;;;;;;;;;;;;;4870345;29;19941;-93
2023/02/09 22:37:19;;;;;;;;;;;;;;;;;;4868851;29;19979;-93
2023/02/09 22:39:45;;;;;;;;;;;;;;;;;;4868172;29;19932;-96
2023/02/09 22:42:11;;;;;;;;;;;;;;;;;;4883896;29;20014;-94
2023/02/09 22:44:37;;;;;;;;;;;;;;;;;;4868177;29;19933;-96
2023/02/09 22:47:03;;;;;;;;;;;;;;;;;;4867662;29;20374;-95
2023/02/09 22:49:50;;;;;;;;;;;;;;;;;;4868464;29;19931;-95
2023/02/09 22:52:15;;;;;;;;;;;;;;;;;;4882987;29;20044;-96
2023/02/09 22:54:41;;;;;;;;;;;;;;;;;;4867749;29;19927;-96
2023/02/09 22:57:07;;;;;;;;;;;;;;;;;;4868320;29;19930;-96
2023/02/09 22:59:36;;;;;;;;;;;;;;;;;;4884210;29;19927;-95
2023/02/09 23:02:04;;;;;;;;;;;;;;;;;;4868448;29;19924;-95
2023/02/09 23:04:31;;;;;;;;;;;;;;;;;;4867992;29;19963;-95
2023/02/09 23:06:57;;;;;;;;;;;;;;;;;;4867886;29;19934;-94
2023/02/09 23:09:23;;;;;;;;;;;;;;;;;;4867614;29;19923;-92
2023/02/09 23:11:49;;;;;;;;;;;;;;;;;;4884200;29;20012;-93
2023/02/09 23:14:15;;;;;;;;;;;;;;;;;;4869555;29;19935;-92
2023/02/09 23:16:41;;;;;;;;;;;;;;;;;;4868232;29;19923;-93
2023/02/09 23:19:07;;;;;;;;;;;;;;;;;;4867455;29;19990;-92
2023/02/09 23:21:33;;;;;;;;;;;;;;;;;;4883204;29;20001;-92
2023/02/09 23:23:59;;;;;;;;;;;;;;;;;;4867223;29;19943;-94
2023/02/09 23:26:25;;;;;;;;;;;;;;;;;;4867567;29;20044;-92
2023/02/09 23:28:51;;;;;;;;;;;;;;;;;;4881477;29;20295;-93
2023/02/09 23:31:17;;;;;;;;;;;;;;;;;;4867090;29;19931;-94
2023/02/09 23:33:43;;;;;;;;;;;;;;;;;;4867069;29;20018;-93
2023/02/09 23:36:09;;;;;;;;;;;;;;;;;;4867053;29;19964;-94
2023/02/09 23:38:35;;;;;;;;;;;;;;;;;;4866773;29;20387;-94
2023/02/09 23:41:01;;;;;;;;;;;;;;;;;;4866717;29;20432;-93
2023/02/09 23:43:27;;;;;;;;;;;;;;;;;;4866330;29;20285;-94
2023/02/09 23:45:53;;;;;;;;;;;;;;;;;;4882426;29;20094;-92
2023/02/09 23:48:19;;;;;;;;;;;;;;;;;;4882243;29;20443;-92
2023/02/09 23:50:45;;;;;;;;;;;;;;;;;;4866622;29;20395;-93
2023/02/09 23:53:12;;;;;;;;;;;;;;;;;;4866779;29;19928;-93
2023/02/09 23:55:38;;;;;;;;;;;;;;;;;;4866516;29;20359;-94
2023/02/09 23:58:04;;;;;;;;;;;;;;;;;;4881391;29;19927;-94
